sensor_id;sensor_type;location;lat;lon;timestamp;temperature;humidity
31619;DHT22;18230;51.502;7.108;2022-10-22T07:52:43;16.60;99.90
31619;DHT22;18230;51.502;7.108;2022-10-22T07:57:44;16.80;99.90
31619;DHT22;18230;51.502;7.108;2022-10-22T08:02:45;16.80;99.90
31619;DHT22;18230;51.502;7.108;2022-10-22T08:07:46;16.70;99.90
31619;DHT22;18230;51.502;7.108;2022-10-22T08:12:46;16.70;99.90
31619;DHT22;18230;51.502;7.108;2022-10-22T08:17:47;16.90;99.90
31619;DHT22;18230;51.502;7.108;2022-10-22T08:22:48;17.00;99.90
31619;DHT22;18230;51.502;7.108;2022-10-22T08:27:49;17.00;99.90
31619;DHT22;18230;51.502;7.108;2022-10-22T08:32:49;17.10;99.90
31619;DHT22;18230;51.502;7.108;2022-10-22T08:37:51;17.10;99.90
31619;DHT22;18230;51.502;7.108;2022-10-22T08:53:47;17.10;99.90
31619;DHT22;18230;51.502;7.108;2022-10-22T08:59:00;17.10;99.90
31619;DHT22;18230;51.502;7.108;2022-10-22T09:09:32;17.10;99.90
31619;DHT22;18230;51.502;7.108;2022-10-22T09:14:34;17.10;99.90
31619;DHT22;18230;51.502;7.108;2022-10-22T09:19:57;17.10;99.90
31619;DHT22;18230;51.502;7.108;2022-10-22T09:25:28;17.20;99.90
31619;DHT22;18230;51.502;7.108;2022-10-22T09:30:33;17.30;99.90
31619;DHT22;18230;51.502;7.108;2022-10-22T09:35:56;17.30;99.90
31619;DHT22;18230;51.502;7.108;2022-10-22T09:40:58;17.40;99.90
31619;DHT22;18230;51.502;7.108;2022-10-22T09:46:05;17.50;99.90
31619;DHT22;18230;51.502;7.108;2022-10-22T09:56:27;17.50;99.90
31619;DHT22;18230;51.502;7.108;2022-10-22T10:01:32;17.50;99.90
31619;DHT22;18230;51.502;7.108;2022-10-22T10:06:34;17.60;99.90
31619;DHT22;18230;51.502;7.108;2022-10-22T10:11:45;17.60;99.90
31619;DHT22;18230;51.502;7.108;2022-10-22T10:16:59;17.60;99.90
31619;DHT22;18230;51.502;7.108;2022-10-22T10:38:46;17.60;99.90
31619;DHT22;18230;51.502;7.108;2022-10-22T10:48:54;17.70;99.90
31619;DHT22;18230;51.502;7.108;2022-10-22T11:09:47;18.10;99.90
31619;DHT22;18230;51.502;7.108;2022-10-22T11:15:06;18.10;99.90
31619;DHT22;18230;51.502;7.108;2022-10-22T11:25:29;18.10;99.90
31619;DHT22;18230;51.502;7.108;2022-10-22T11:30:33;18.10;99.90
31619;DHT22;18230;51.502;7.108;2022-10-22T11:35:39;18.10;99.90
31619;DHT22;18230;51.502;7.108;2022-10-22T11:40:51;18.20;99.90
31619;DHT22;18230;51.502;7.108;2022-10-22T11:51:36;18.30;99.90
31619;DHT22;18230;51.502;7.108;2022-10-22T11:56:37;18.30;99.90
31619;DHT22;18230;51.502;7.108;2022-10-22T12:01:43;18.40;99.90
31619;DHT22;18230;51.502;7.108;2022-10-22T12:07:00;18.30;99.90
31619;DHT22;18230;51.502;7.108;2022-10-22T12:12:10;18.30;99.90
31619;DHT22;18230;51.502;7.108;2022-10-22T12:17:13;18.20;99.90
31619;DHT22;18230;51.502;7.108;2022-10-22T12:22:22;18.30;99.90
31619;DHT22;18230;51.502;7.108;2022-10-22T12:27:38;18.40;99.90
31619;DHT22;18230;51.502;7.108;2022-10-22T12:32:39;18.40;99.90
31619;DHT22;18230;51.502;7.108;2022-10-22T12:37:40;18.40;99.90
31619;DHT22;18230;51.502;7.108;2022-10-22T12:42:49;18.40;99.90
31619;DHT22;18230;51.502;7.108;2022-10-22T12:47:55;18.30;99.90
31619;DHT22;18230;51.502;7.108;2022-10-22T12:52:56;18.40;99.90
31619;DHT22;18230;51.502;7.108;2022-10-22T12:57:56;18.40;99.90
31619;DHT22;18230;51.502;7.108;2022-10-22T13:02:59;18.50;99.90
31619;DHT22;18230;51.502;7.108;2022-10-22T13:08:08;18.40;99.90
31619;DHT22;18230;51.502;7.108;2022-10-22T13:13:29;18.50;99.90
31619;DHT22;18230;51.502;7.108;2022-10-22T13:18:32;18.40;99.90
31619;DHT22;18230;51.502;7.108;2022-10-22T13:23:33;18.50;99.90
31619;DHT22;18230;51.502;7.108;2022-10-22T13:28:34;18.50;99.90
31619;DHT22;18230;51.502;7.108;2022-10-22T13:33:40;18.40;99.90
31619;DHT22;18230;51.502;7.108;2022-10-22T13:38:42;18.40;99.90
31619;DHT22;18230;51.502;7.108;2022-10-22T13:43:44;18.30;99.90
31619;DHT22;18230;51.502;7.108;2022-10-22T13:48:46;18.30;99.90
31619;DHT22;18230;51.502;7.108;2022-10-22T13:53:48;18.40;99.90
31619;DHT22;18230;51.502;7.108;2022-10-22T13:58:49;18.40;99.90
31619;DHT22;18230;51.502;7.108;2022-10-22T14:03:53;18.40;99.90
31619;DHT22;18230;51.502;7.108;2022-10-22T14:08:57;18.40;99.90
31619;DHT22;18230;51.502;7.108;2022-10-22T14:13:58;18.30;99.90
31619;DHT22;18230;51.502;7.108;2022-10-22T14:19:00;18.40;99.90
31619;DHT22;18230;51.502;7.108;2022-10-22T14:24:01;18.60;99.90
31619;DHT22;18230;51.502;7.108;2022-10-22T14:29:02;18.60;99.90
31619;DHT22;18230;51.502;7.108;2022-10-22T14:34:03;18.50;99.90
31619;DHT22;18230;51.502;7.108;2022-10-22T14:39:04;18.50;99.90
31619;DHT22;18230;51.502;7.108;2022-10-22T14:44:04;18.40;99.90
31619;DHT22;18230;51.502;7.108;2022-10-22T14:49:05;18.50;99.90
31619;DHT22;18230;51.502;7.108;2022-10-22T14:54:06;18.40;99.90
31619;DHT22;18230;51.502;7.108;2022-10-22T14:59:06;18.30;99.90
31619;DHT22;18230;51.502;7.108;2022-10-22T15:04:07;18.30;99.90
31619;DHT22;18230;51.502;7.108;2022-10-22T15:09:08;18.20;99.90
31619;DHT22;18230;51.502;7.108;2022-10-22T15:14:09;18.30;99.90
31619;DHT22;18230;51.502;7.108;2022-10-22T15:19:12;18.30;99.90
31619;DHT22;18230;51.502;7.108;2022-10-22T15:24:13;18.20;99.90
31619;DHT22;18230;51.502;7.108;2022-10-22T15:29:13;18.20;99.90
31619;DHT22;18230;51.502;7.108;2022-10-22T15:34:40;18.20;99.90
31619;DHT22;18230;51.502;7.108;2022-10-22T15:39:41;18.30;99.90
31619;DHT22;18230;51.502;7.108;2022-10-22T15:44:56;18.40;99.90
31619;DHT22;18230;51.502;7.108;2022-10-22T15:49:57;18.30;99.90
31619;DHT22;18230;51.502;7.108;2022-10-22T15:54:58;18.30;99.90
31619;DHT22;18230;51.502;7.108;2022-10-22T16:00:00;18.20;99.90
31619;DHT22;18230;51.502;7.108;2022-10-22T16:05:00;18.00;99.90
31619;DHT22;18230;51.502;7.108;2022-10-22T16:10:01;17.90;99.90
31619;DHT22;18230;51.502;7.108;2022-10-22T16:15:02;17.80;99.90
31619;DHT22;18230;51.502;7.108;2022-10-22T16:20:03;17.60;99.90
31619;DHT22;18230;51.502;7.108;2022-10-22T16:25:05;17.60;99.90
31619;DHT22;18230;51.502;7.108;2022-10-22T16:30:06;17.40;99.90
31619;DHT22;18230;51.502;7.108;2022-10-22T16:35:07;17.30;99.90
31619;DHT22;18230;51.502;7.108;2022-10-22T16:40:08;17.20;99.90
31619;DHT22;18230;51.502;7.108;2022-10-22T16:45:10;17.10;99.90
31619;DHT22;18230;51.502;7.108;2022-10-22T16:50:10;17.00;99.90
31619;DHT22;18230;51.502;7.108;2022-10-22T16:55:11;16.90;99.90
31619;DHT22;18230;51.502;7.108;2022-10-22T17:00:12;16.80;99.90
31619;DHT22;18230;51.502;7.108;2022-10-22T17:05:13;16.60;99.90
31619;DHT22;18230;51.502;7.108;2022-10-22T17:10:14;16.60;99.90
31619;DHT22;18230;51.502;7.108;2022-10-22T17:15:15;16.50;99.90
31619;DHT22;18230;51.502;7.108;2022-10-22T17:20:17;16.40;99.90
31619;DHT22;18230;51.502;7.108;2022-10-22T17:31:10;16.10;99.90
31619;DHT22;18230;51.502;7.108;2022-10-22T17:36:15;15.90;99.90
31619;DHT22;18230;51.502;7.108;2022-10-22T17:41:20;15.90;99.90
31619;DHT22;18230;51.502;7.108;2022-10-22T17:46:23;15.80;99.90
31619;DHT22;18230;51.502;7.108;2022-10-22T17:51:26;15.70;99.90
31619;DHT22;18230;51.502;7.108;2022-10-22T17:56:28;15.60;99.90
31619;DHT22;18230;51.502;7.108;2022-10-22T18:01:34;15.50;99.90
31619;DHT22;18230;51.502;7.108;2022-10-22T18:06:35;15.40;99.90
31619;DHT22;18230;51.502;7.108;2022-10-22T18:11:37;15.40;99.90
31619;DHT22;18230;51.502;7.108;2022-10-22T18:16:38;15.30;99.90
31619;DHT22;18230;51.502;7.108;2022-10-22T18:21:38;15.20;99.90
31619;DHT22;18230;51.502;7.108;2022-10-22T18:26:39;15.30;99.90
31619;DHT22;18230;51.502;7.108;2022-10-22T18:31:40;15.20;99.90
31619;DHT22;18230;51.502;7.108;2022-10-22T18:36:41;15.10;99.90
31619;DHT22;18230;51.502;7.108;2022-10-22T18:41:42;15.10;99.90
31619;DHT22;18230;51.502;7.108;2022-10-22T18:46:43;15.00;99.90
31619;DHT22;18230;51.502;7.108;2022-10-22T18:51:44;15.00;99.90
31619;DHT22;18230;51.502;7.108;2022-10-22T18:56:47;15.00;99.90
31619;DHT22;18230;51.502;7.108;2022-10-22T19:01:50;15.10;99.90
31619;DHT22;18230;51.502;7.108;2022-10-22T19:06:51;15.00;99.90
31619;DHT22;18230;51.502;7.108;2022-10-22T19:11:52;15.00;99.90
31619;DHT22;18230;51.502;7.108;2022-10-22T19:16:52;15.00;99.90
31619;DHT22;18230;51.502;7.108;2022-10-22T19:21:53;14.80;99.90
31619;DHT22;18230;51.502;7.108;2022-10-22T19:27:02;14.80;99.90
31619;DHT22;18230;51.502;7.108;2022-10-22T19:32:11;14.70;99.90
31619;DHT22;18230;51.502;7.108;2022-10-22T19:37:12;14.70;99.90
31619;DHT22;18230;51.502;7.108;2022-10-22T19:42:13;14.70;99.90
31619;DHT22;18230;51.502;7.108;2022-10-22T19:47:14;14.60;99.90
31619;DHT22;18230;51.502;7.108;2022-10-22T19:52:15;14.70;99.90
31619;DHT22;18230;51.502;7.108;2022-10-22T19:57:17;14.70;99.90
31619;DHT22;18230;51.502;7.108;2022-10-22T20:02:21;14.80;99.90
31619;DHT22;18230;51.502;7.108;2022-10-22T20:07:22;14.70;99.90
31619;DHT22;18230;51.502;7.108;2022-10-22T20:12:23;14.70;99.90
31619;DHT22;18230;51.502;7.108;2022-10-22T20:17:26;14.60;99.90
31619;DHT22;18230;51.502;7.108;2022-10-22T20:22:32;14.60;99.90
31619;DHT22;18230;51.502;7.108;2022-10-22T20:27:33;14.50;99.90
31619;DHT22;18230;51.502;7.108;2022-10-22T20:32:36;14.40;99.90
31619;DHT22;18230;51.502;7.108;2022-10-22T20:37:42;14.40;99.90
31619;DHT22;18230;51.502;7.108;2022-10-22T20:42:43;14.40;99.90
31619;DHT22;18230;51.502;7.108;2022-10-22T20:47:43;14.50;99.90
31619;DHT22;18230;51.502;7.108;2022-10-22T20:52:44;14.40;99.90
31619;DHT22;18230;51.502;7.108;2022-10-22T20:57:45;14.50;99.90
31619;DHT22;18230;51.502;7.108;2022-10-22T21:02:46;14.50;99.90
31619;DHT22;18230;51.502;7.108;2022-10-22T21:07:46;14.30;99.90
31619;DHT22;18230;51.502;7.108;2022-10-22T21:12:47;14.30;99.90
31619;DHT22;18230;51.502;7.108;2022-10-22T21:17:48;14.40;99.90
31619;DHT22;18230;51.502;7.108;2022-10-22T21:22:48;14.40;99.90
31619;DHT22;18230;51.502;7.108;2022-10-22T21:27:49;14.40;99.90
31619;DHT22;18230;51.502;7.108;2022-10-22T21:32:50;14.40;99.90
31619;DHT22;18230;51.502;7.108;2022-10-22T21:37:51;14.40;99.90
31619;DHT22;18230;51.502;7.108;2022-10-22T21:42:51;14.30;99.90
31619;DHT22;18230;51.502;7.108;2022-10-22T21:47:52;14.30;99.90
31619;DHT22;18230;51.502;7.108;2022-10-22T21:52:53;14.40;99.90
31619;DHT22;18230;51.502;7.108;2022-10-22T21:57:53;14.40;99.90
31619;DHT22;18230;51.502;7.108;2022-10-22T22:02:54;14.40;99.90
31619;DHT22;18230;51.502;7.108;2022-10-22T22:07:55;14.40;99.90
31619;DHT22;18230;51.502;7.108;2022-10-22T22:12:56;14.50;99.90
31619;DHT22;18230;51.502;7.108;2022-10-22T22:17:56;14.50;99.90
31619;DHT22;18230;51.502;7.108;2022-10-22T22:22:57;14.50;99.90
31619;DHT22;18230;51.502;7.108;2022-10-22T22:27:58;14.50;99.90
31619;DHT22;18230;51.502;7.108;2022-10-22T22:32:58;14.50;99.90
31619;DHT22;18230;51.502;7.108;2022-10-22T22:37:59;14.50;99.90
31619;DHT22;18230;51.502;7.108;2022-10-22T22:42:59;14.50;99.90
31619;DHT22;18230;51.502;7.108;2022-10-22T22:48:01;14.50;99.90
31619;DHT22;18230;51.502;7.108;2022-10-22T22:53:02;14.50;99.90
31619;DHT22;18230;51.502;7.108;2022-10-22T22:58:03;14.50;99.90
31619;DHT22;18230;51.502;7.108;2022-10-22T23:03:04;14.50;99.90
31619;DHT22;18230;51.502;7.108;2022-10-22T23:08:05;14.40;99.90
31619;DHT22;18230;51.502;7.108;2022-10-22T23:13:06;14.40;99.90
31619;DHT22;18230;51.502;7.108;2022-10-22T23:18:06;14.30;99.90
31619;DHT22;18230;51.502;7.108;2022-10-22T23:23:07;14.30;99.90
31619;DHT22;18230;51.502;7.108;2022-10-22T23:28:08;14.40;99.90
31619;DHT22;18230;51.502;7.108;2022-10-22T23:33:08;14.40;99.90
31619;DHT22;18230;51.502;7.108;2022-10-22T23:38:09;14.40;99.90
31619;DHT22;18230;51.502;7.108;2022-10-22T23:43:10;14.20;99.90
31619;DHT22;18230;51.502;7.108;2022-10-22T23:48:10;14.10;99.90
31619;DHT22;18230;51.502;7.108;2022-10-22T23:53:11;14.20;99.90
31619;DHT22;18230;51.502;7.108;2022-10-22T23:58:12;14.10;99.90
